Time;durP1;ratioP1;P1;durP2;ratioP2;P2;SDS_P1;SDS_P2;PMS_P1;PMS_P2;Temp;Humidity;BMP_temperature;BMP_pressure;BME280_temperature;BME280_humidity;BME280_pressure;Samples;Min_cycle;Max_cycle;Signal;HPM_P1;HPM_P2
2022/03/04 00:01:38;;;;;;;;;;;;;;;10.33;28.20;99366.69;4483417;31;34077;-62
2022/03/04 00:04:09;;;;;;;;;;;;;;;10.59;27.31;99367.28;4485249;31;34047;-62
2022/03/04 00:06:36;;;;;;;;;;;;;;;10.48;27.92;99375.31;4489371;31;33849;-63
2022/03/04 00:09:03;;;;;;;;;;;;;;;9.84;29.40;99380.38;4481080;31;33996;-61
2022/03/04 00:11:32;;;;;;;;;;;;;;;10.62;27.86;99376.87;4481631;31;32447;-61
2022/03/04 00:14:00;;;;;;;;;;;;;;;10.84;27.11;99371.50;4470364;31;34187;-61
2022/03/04 00:16:27;;;;;;;;;;;;;;;10.63;28.46;99371.41;4483360;31;34717;-63
2022/03/04 00:19:09;;;;;;;;;;;;;;;10.63;27.15;99375.94;4487636;31;34977;-62
2022/03/04 00:21:48;;;;;;;;;;;;;;;10.78;27.35;99373.81;4481107;31;35621;-63
2022/03/04 00:24:16;;;;;;;;;;;;;;;10.14;28.26;99375.28;4482326;32;35019;-64
2022/03/04 00:26:44;;;;;;;;;;;;;;;10.62;26.81;99377.72;4482622;31;33857;-64
2022/03/04 00:29:12;;;;;;;;;;;;;;;10.26;28.23;99373.50;4481551;32;33744;-63
2022/03/04 00:31:42;;;;;;;;;;;;;;;10.55;27.62;99370.31;4485555;31;34093;-63
2022/03/04 00:34:10;;;;;;;;;;;;;;;10.45;27.57;99365.72;4487580;31;34087;-63
2022/03/04 00:36:38;;;;;;;;;;;;;;;10.40;28.03;99370.59;4482048;31;33604;-65
2022/03/04 00:39:07;;;;;;;;;;;;;;;10.52;27.88;99366.06;4482995;31;34326;-63
2022/03/04 00:41:34;;;;;;;;;;;;;;;10.63;27.58;99360.72;4481894;31;33638;-63
2022/03/04 00:44:02;;;;;;;;;;;;;;;10.51;27.79;99366.22;4482948;31;35160;-65
2022/03/04 00:46:30;;;;;;;;;;;;;;;10.68;27.21;99360.34;4487661;31;32636;-64
2022/03/04 00:48:57;;;;;;;;;;;;;;;11.10;27.06;99358.63;4482623;32;34234;-63
2022/03/04 00:51:25;;;;;;;;;;;;;;;10.79;27.20;99354.13;4483024;31;35034;-66
2022/03/04 00:53:53;;;;;;;;;;;;;;;10.70;27.31;99358.38;4488905;31;35040;-64
2022/03/04 00:56:20;;;;;;;;;;;;;;;10.93;27.09;99354.66;4493631;31;34010;-64
2022/03/04 00:58:48;;;;;;;;;;;;;;;11.27;26.13;99351.88;4482940;32;34240;-64
2022/03/04 01:01:16;;;;;;;;;;;;;;;11.27;26.17;99349.19;4488876;31;34609;-63
2022/03/04 01:03:44;;;;;;;;;;;;;;;11.23;26.47;99354.94;4480067;31;34270;-63
2022/03/04 01:06:12;;;;;;;;;;;;;;;11.05;27.10;99357.31;4488313;31;33301;-64
2022/03/04 01:08:39;;;;;;;;;;;;;;;11.18;26.36;99350.81;4483221;31;34250;-64
2022/03/04 01:11:07;;;;;;;;;;;;;;;11.08;26.37;99346.37;4488108;31;34575;-63
2022/03/04 01:13:34;;;;;;;;;;;;;;;11.14;26.06;99349.38;4483956;31;34435;-63
2022/03/04 01:16:02;;;;;;;;;;;;;;;11.16;25.93;99354.59;4488314;31;33576;-63
2022/03/04 01:18:30;;;;;;;;;;;;;;;10.91;26.70;99348.62;4487377;31;32775;-64
2022/03/04 01:20:58;;;;;;;;;;;;;;;10.93;26.71;99346.63;4481789;31;34053;-64
2022/03/04 01:23:26;;;;;;;;;;;;;;;10.86;26.85;99348.13;4484419;31;34976;-64
2022/03/04 01:25:53;;;;;;;;;;;;;;;10.65;27.33;99342.69;4491810;31;34253;-64
2022/03/04 01:28:21;;;;;;;;;;;;;;;10.78;27.03;99344.38;4484060;31;34247;-62
2022/03/04 01:30:49;;;;;;;;;;;;;;;10.82;27.64;99341.34;4488097;31;34457;-65
2022/03/04 01:33:16;;;;;;;;;;;;;;;10.67;27.38;99337.22;4486511;31;33788;-63
2022/03/04 01:35:43;;;;;;;;;;;;;;;10.55;28.34;99341.75;4487996;31;32373;-64
2022/03/04 01:38:11;;;;;;;;;;;;;;;10.76;27.39;99343.66;4480839;31;34270;-64
2022/03/04 01:40:39;;;;;;;;;;;;;;;9.97;28.67;99333.00;4487704;31;34418;-64
2022/03/04 01:43:06;;;;;;;;;;;;;;;10.37;28.03;99344.09;4487632;31;34395;-64
2022/03/04 01:45:34;;;;;;;;;;;;;;;10.43;28.08;99338.25;4492133;31;34628;-64
2022/03/04 01:48:01;;;;;;;;;;;;;;;10.49;28.06;99337.72;4496058;31;35132;-64
2022/03/04 01:50:28;;;;;;;;;;;;;;;10.33;28.42;99331.91;4483647;31;36540;-65
2022/03/04 01:52:56;;;;;;;;;;;;;;;10.67;28.02;99329.19;4490036;31;34240;-65
2022/03/04 01:55:25;;;;;;;;;;;;;;;10.38;29.08;99336.91;4485890;31;33632;-64
2022/03/04 01:57:52;;;;;;;;;;;;;;;9.86;30.34;99338.34;4490012;31;35128;-64
2022/03/04 02:00:21;;;;;;;;;;;;;;;9.74;30.82;99338.31;4483540;31;33898;-63
2022/03/04 02:02:50;;;;;;;;;;;;;;;10.00;30.27;99338.94;4490191;31;34252;-65
2022/03/04 02:05:18;;;;;;;;;;;;;;;9.83;30.96;99343.94;4480568;31;34579;-65
2022/03/04 02:07:45;;;;;;;;;;;;;;;10.26;30.74;99346.75;4488515;31;34067;-63
2022/03/04 02:10:12;;;;;;;;;;;;;;;9.14;32.47;99341.19;4489082;31;33187;-63
2022/03/04 02:12:40;;;;;;;;;;;;;;;9.37;33.15;99347.47;4487511;31;34205;-65
2022/03/04 02:15:08;;;;;;;;;;;;;;;9.89;31.95;99348.81;4486089;31;34632;-65
2022/03/04 02:17:35;;;;;;;;;;;;;;;9.63;31.86;99348.13;4472271;31;34001;-65
2022/03/04 02:20:04;;;;;;;;;;;;;;;9.47;33.22;99343.09;4483606;31;33982;-65
2022/03/04 02:22:32;;;;;;;;;;;;;;;9.33;33.25;99347.69;4483817;31;35413;-65
2022/03/04 02:25:00;;;;;;;;;;;;;;;8.75;34.70;99343.19;4485145;31;33619;-62
2022/03/04 02:27:28;;;;;;;;;;;;;;;8.73;35.83;99343.31;4480959;31;35044;-62
2022/03/04 02:29:55;;;;;;;;;;;;;;;8.09;38.88;99353.22;4486742;31;35274;-62
2022/03/04 02:32:23;;;;;;;;;;;;;;;7.15;41.37;99346.37;4480536;31;33417;-62
2022/03/04 02:34:52;;;;;;;;;;;;;;;7.68;40.36;99349.88;4480170;31;33528;-62
2022/03/04 02:37:21;;;;;;;;;;;;;;;7.78;40.97;99350.06;4481576;31;34101;-64
2022/03/04 02:39:49;;;;;;;;;;;;;;;7.67;41.10;99355.28;4483698;31;34306;-62
2022/03/04 02:42:17;;;;;;;;;;;;;;;7.79;41.36;99357.09;4484913;31;34315;-62
2022/03/04 02:44:44;;;;;;;;;;;;;;;8.12;40.56;99364.56;4483723;31;34317;-63
2022/03/04 02:47:12;;;;;;;;;;;;;;;7.26;42.52;99358.97;4483518;31;35196;-62
2022/03/04 02:49:40;;;;;;;;;;;;;;;7.97;41.94;99362.13;4481236;31;34491;-64
2022/03/04 02:52:07;;;;;;;;;;;;;;;8.04;41.51;99355.41;4484694;31;34793;-62
2022/03/04 02:54:35;;;;;;;;;;;;;;;8.12;40.70;99359.22;4486528;31;33398;-63
2022/03/04 02:57:03;;;;;;;;;;;;;;;8.08;40.92;99357.72;4485966;31;35274;-64
2022/03/04 02:59:30;;;;;;;;;;;;;;;8.34;41.71;99363.00;4484393;31;35366;-63
2022/03/04 03:01:58;;;;;;;;;;;;;;;8.48;40.01;99359.41;4481894;31;35705;-63
2022/03/04 03:04:26;;;;;;;;;;;;;;;7.65;41.43;99370.53;4482546;31;31957;-63
2022/03/04 03:06:53;;;;;;;;;;;;;;;8.31;40.51;99368.56;4479065;31;33899;-62
2022/03/04 03:09:21;;;;;;;;;;;;;;;8.05;40.72;99373.06;4482309;31;33685;-62
2022/03/04 03:11:49;;;;;;;;;;;;;;;7.88;41.55;99374.28;4483195;31;34176;-63
2022/03/04 03:14:16;;;;;;;;;;;;;;;7.90;41.04;99367.87;4484731;31;33697;-62
2022/03/04 03:16:46;;;;;;;;;;;;;;;8.44;40.30;99371.25;4483132;31;32735;-64
2022/03/04 03:19:15;;;;;;;;;;;;;;;7.48;41.81;99377.03;4485868;31;34042;-63
2022/03/04 03:21:45;;;;;;;;;;;;;;;8.03;41.01;99367.03;4485983;31;34690;-64
2022/03/04 03:24:15;;;;;;;;;;;;;;;7.83;41.31;99371.06;4468333;31;33201;-63
2022/03/04 03:26:45;;;;;;;;;;;;;;;7.62;41.62;99370.75;4483896;31;34302;-63
2022/03/04 03:29:13;;;;;;;;;;;;;;;8.07;41.13;99376.50;4487004;31;33078;-62
2022/03/04 03:31:43;;;;;;;;;;;;;;;7.62;41.32;99370.75;4486816;31;33971;-63
2022/03/04 03:34:11;;;;;;;;;;;;;;;8.18;40.46;99373.91;4489130;31;33418;-64
2022/03/04 03:36:40;;;;;;;;;;;;;;;7.17;43.02;99381.72;4486572;31;33834;-66
2022/03/04 03:39:09;;;;;;;;;;;;;;;7.28;43.46;99383.66;4484201;31;34033;-64
2022/03/04 03:41:39;;;;;;;;;;;;;;;7.89;41.20;99387.47;4485661;31;34217;-65
2022/03/04 03:44:08;;;;;;;;;;;;;;;8.54;39.67;99383.81;4484838;31;32962;-64
2022/03/04 03:46:37;;;;;;;;;;;;;;;8.05;40.74;99379.25;4480695;31;32946;-65
2022/03/04 03:49:08;;;;;;;;;;;;;;;7.60;41.38;99378.81;4482509;31;34544;-63
2022/03/04 03:51:37;;;;;;;;;;;;;;;8.07;41.02;99379.16;4485774;31;33405;-64
2022/03/04 03:54:06;;;;;;;;;;;;;;;7.02;43.48;99387.22;4487520;31;33368;-63
2022/03/04 03:56:36;;;;;;;;;;;;;;;8.31;40.43;99384.56;4482813;31;33881;-64
2022/03/04 03:59:05;;;;;;;;;;;;;;;8.84;39.06;99385.22;4480776;31;35125;-63
2022/03/04 04:01:38;;;;;;;;;;;;;;;9.19;38.16;99381.75;4488026;31;33429;-63
2022/03/04 04:04:12;;;;;;;;;;;;;;;9.49;37.43;99384.78;4487134;31;32007;-61
2022/03/04 04:06:41;;;;;;;;;;;;;;;9.17;38.18;99384.53;4480713;31;33145;-63
2022/03/04 04:09:11;;;;;;;;;;;;;;;9.49;37.45;99378.59;4490156;31;34658;-64
2022/03/04 04:11:41;;;;;;;;;;;;;;;9.70;36.88;99381.44;4477919;31;33328;-63
2022/03/04 04:14:10;;;;;;;;;;;;;;;9.03;38.11;99382.91;4480009;31;32542;-63
2022/03/04 04:16:39;;;;;;;;;;;;;;;9.15;37.93;99374.91;4484277;31;33701;-63
2022/03/04 04:19:08;;;;;;;;;;;;;;;8.57;39.41;99383.59;4491476;31;34842;-62
2022/03/04 04:21:37;;;;;;;;;;;;;;;9.20;38.18;99384.31;4482077;31;35071;-62
2022/03/04 04:24:06;;;;;;;;;;;;;;;8.56;39.36;99391.69;4483883;31;33567;-63
2022/03/04 04:26:35;;;;;;;;;;;;;;;9.39;37.67;99381.09;4487551;31;33923;-64
2022/03/04 04:29:04;;;;;;;;;;;;;;;9.38;37.65;99391.91;4481486;31;34576;-63
2022/03/04 04:31:33;;;;;;;;;;;;;;;9.32;37.72;99393.22;4486312;31;34550;-64
2022/03/04 04:34:03;;;;;;;;;;;;;;;9.27;37.99;99388.22;4483853;31;32501;-63
2022/03/04 04:36:32;;;;;;;;;;;;;;;9.44;37.50;99381.63;4486202;31;34216;-63
2022/03/04 04:39:00;;;;;;;;;;;;;;;9.06;38.27;99392.50;4485801;31;34266;-64
2022/03/04 04:41:28;;;;;;;;;;;;;;;8.97;38.46;99396.69;4488817;31;34659;-63
2022/03/04 04:43:57;;;;;;;;;;;;;;;9.41;37.52;99397.88;4485775;31;33762;-64
2022/03/04 04:46:25;;;;;;;;;;;;;;;9.88;36.37;99400.53;4484035;31;34144;-66
2022/03/04 04:48:57;;;;;;;;;;;;;;;9.79;36.42;99412.78;4486996;31;33288;-63
2022/03/04 04:51:25;;;;;;;;;;;;;;;9.91;36.02;99413.66;4482776;31;35277;-64
2022/03/04 04:53:54;;;;;;;;;;;;;;;9.91;35.94;99422.53;4483143;31;34265;-64
2022/03/04 04:56:22;;;;;;;;;;;;;;;9.98;36.00;99421.13;4478297;31;33877;-64
2022/03/04 04:58:51;;;;;;;;;;;;;;;9.75;36.66;99425.53;4481476;31;34452;-64
2022/03/04 05:01:19;;;;;;;;;;;;;;;9.91;36.40;99430.56;4481060;31;34497;-64
2022/03/04 05:03:48;;;;;;;;;;;;;;;9.91;36.36;99433.22;4488076;31;33315;-63
2022/03/04 05:06:17;;;;;;;;;;;;;;;10.05;35.58;99432.19;4479336;31;33065;-64
2022/03/04 05:08:45;;;;;;;;;;;;;;;9.90;36.23;99434.22;4482293;31;34204;-63
2022/03/04 05:11:14;;;;;;;;;;;;;;;9.85;35.99;99438.19;4481079;31;34190;-66
2022/03/04 05:13:42;;;;;;;;;;;;;;;9.56;36.41;99443.94;4487264;31;33323;-63
2022/03/04 05:16:10;;;;;;;;;;;;;;;9.57;36.52;99437.66;4483999;31;35239;-64
2022/03/04 05:18:41;;;;;;;;;;;;;;;9.74;36.09;99441.69;4480397;31;34410;-63
2022/03/04 05:21:09;;;;;;;;;;;;;;;9.83;35.42;99450.84;4484891;31;32825;-64
2022/03/04 05:26:25;;;;;;;;;;;;;;;9.47;36.00;99447.28;4479496;31;34184;-64
2022/03/04 05:28:54;;;;;;;;;;;;;;;9.55;35.31;99447.59;4486484;31;34344;-65
2022/03/04 05:31:22;;;;;;;;;;;;;;;9.17;36.58;99461.97;4464341;31;33289;-63
2022/03/04 05:33:51;;;;;;;;;;;;;;;9.34;36.82;99455.38;4487831;31;32378;-62
2022/03/04 05:36:19;;;;;;;;;;;;;;;9.46;35.69;99459.81;4482074;31;33746;-64
2022/03/04 05:38:48;;;;;;;;;;;;;;;9.62;35.61;99462.19;4484138;31;33492;-63
2022/03/04 05:41:17;;;;;;;;;;;;;;;9.06;37.05;99464.59;4488635;31;34122;-69
2022/03/04 05:43:45;;;;;;;;;;;;;;;9.26;36.95;99477.31;4486464;31;33694;-64
2022/03/04 05:46:14;;;;;;;;;;;;;;;9.45;36.65;99481.31;4483156;31;34954;-65
2022/03/04 05:48:43;;;;;;;;;;;;;;;9.38;36.83;99478.25;4487007;31;35739;-64
2022/03/04 05:51:12;;;;;;;;;;;;;;;9.71;36.27;99484.69;4490274;31;35681;-66
2022/03/04 05:53:40;;;;;;;;;;;;;;;10.01;35.21;99485.03;4492803;31;33668;-66
2022/03/04 05:56:09;;;;;;;;;;;;;;;9.80;36.05;99489.34;4486260;31;33696;-64
2022/03/04 05:58:38;;;;;;;;;;;;;;;9.76;36.11;99496.75;4486926;31;34133;-64
2022/03/04 06:01:06;;;;;;;;;;;;;;;9.78;35.82;99493.94;4483506;31;33200;-66
2022/03/04 06:03:35;;;;;;;;;;;;;;;9.88;35.79;99508.31;4490306;31;33385;-63
2022/03/04 06:06:04;;;;;;;;;;;;;;;10.24;34.51;99498.44;4483578;31;33993;-63
2022/03/04 06:08:32;;;;;;;;;;;;;;;10.04;35.42;99498.16;4485606;31;34103;-63
2022/03/04 06:11:01;;;;;;;;;;;;;;;10.23;34.95;99500.28;4483911;31;34556;-64
2022/03/04 06:13:29;;;;;;;;;;;;;;;10.14;35.19;99497.47;4479521;32;33067;-63
2022/03/04 06:15:57;;;;;;;;;;;;;;;10.22;35.05;99497.72;4490046;31;32962;-63
2022/03/04 06:18:26;;;;;;;;;;;;;;;10.10;35.12;99501.34;4483912;31;34367;-66
2022/03/04 06:20:55;;;;;;;;;;;;;;;10.29;34.06;99506.16;4481945;31;35177;-64
2022/03/04 06:23:23;;;;;;;;;;;;;;;9.97;34.79;99512.13;4487463;31;33078;-64
2022/03/04 06:25:52;;;;;;;;;;;;;;;9.45;35.96;99516.88;4481760;32;34338;-65
2022/03/04 06:28:21;;;;;;;;;;;;;;;9.66;35.50;99518.91;4481488;31;35409;-65
2022/03/04 06:30:49;;;;;;;;;;;;;;;9.66;35.27;99516.25;4479981;32;33325;-64
2022/03/04 06:33:32;;;;;;;;;;;;;;;9.83;35.10;99534.56;4489694;31;34516;-65
2022/03/04 06:36:07;;;;;;;;;;;;;;;9.92;35.06;99519.63;4484086;31;33863;-64
2022/03/04 06:38:35;;;;;;;;;;;;;;;10.32;33.72;99525.50;4491590;31;34639;-65
2022/03/04 06:41:05;;;;;;;;;;;;;;;10.34;33.47;99531.59;4485284;31;34027;-65
2022/03/04 06:43:33;;;;;;;;;;;;;;;10.16;34.42;99538.31;4485429;31;33712;-64
2022/03/04 06:46:03;;;;;;;;;;;;;;;10.28;33.80;99529.41;4483439;31;34277;-63
2022/03/04 06:48:31;;;;;;;;;;;;;;;10.35;34.05;99533.28;4483245;31;33047;-64
2022/03/04 06:51:00;;;;;;;;;;;;;;;10.32;34.00;99532.69;4493095;31;34176;-65
2022/03/04 06:53:29;;;;;;;;;;;;;;;10.39;34.23;99541.94;4487506;31;33712;-64
2022/03/04 06:55:58;;;;;;;;;;;;;;;10.33;34.76;99534.38;4485900;31;33987;-64
2022/03/04 06:58:26;;;;;;;;;;;;;;;10.34;34.76;99539.62;4480834;31;34323;-66
2022/03/04 07:00:55;;;;;;;;;;;;;;;10.31;34.92;99542.53;4480727;31;35474;-63
2022/03/04 07:03:24;;;;;;;;;;;;;;;10.46;34.89;99537.81;4490912;31;34079;-64
2022/03/04 07:05:52;;;;;;;;;;;;;;;10.63;34.55;99550.75;4490687;31;34024;-64
2022/03/04 07:08:21;;;;;;;;;;;;;;;10.63;34.80;99550.75;4486064;31;34130;-64
2022/03/04 07:10:49;;;;;;;;;;;;;;;10.58;34.71;99552.06;4486805;31;34181;-65
2022/03/04 07:13:19;;;;;;;;;;;;;;;10.64;34.84;99547.09;4488504;31;34343;-64
2022/03/04 07:15:48;;;;;;;;;;;;;;;10.57;35.43;99556.56;4487920;31;34245;-64
2022/03/04 07:18:16;;;;;;;;;;;;;;;10.56;35.55;99562.03;4481101;31;35433;-64
2022/03/04 07:20:45;;;;;;;;;;;;;;;10.48;35.40;99560.81;4485830;31;34043;-64
2022/03/04 07:23:14;;;;;;;;;;;;;;;10.75;34.94;99566.81;4480579;31;33524;-65
2022/03/04 07:25:42;;;;;;;;;;;;;;;10.75;34.85;99562.28;4480286;32;33894;-66
2022/03/04 07:28:10;;;;;;;;;;;;;;;10.55;35.13;99565.69;4479201;31;34867;-65
2022/03/04 07:30:40;;;;;;;;;;;;;;;10.91;34.76;99564.63;4484829;31;34792;-63
2022/03/04 07:33:08;;;;;;;;;;;;;;;10.85;34.83;99565.97;4484433;31;33441;-64
2022/03/04 07:35:41;;;;;;;;;;;;;;;10.61;35.00;99573.25;4484064;31;33521;-65
2022/03/04 07:38:10;;;;;;;;;;;;;;;10.87;34.85;99568.53;4488732;31;34123;-66
2022/03/04 07:40:46;;;;;;;;;;;;;;;10.88;34.58;99571.09;4488678;31;34382;-64
2022/03/04 07:43:14;;;;;;;;;;;;;;;11.03;34.74;99577.03;4487079;31;33506;-64
2022/03/04 07:45:42;;;;;;;;;;;;;;;10.92;34.73;99575.22;4480757;31;33842;-63
2022/03/04 07:48:10;;;;;;;;;;;;;;;11.08;34.54;99587.41;4484951;31;34831;-64
2022/03/04 07:50:39;;;;;;;;;;;;;;;10.69;34.98;99578.88;4483526;31;35393;-63
2022/03/04 07:53:07;;;;;;;;;;;;;;;10.54;35.39;99586.25;4490217;31;32329;-65
2022/03/04 07:55:36;;;;;;;;;;;;;;;10.32;35.69;99583.50;4486199;31;34025;-63
2022/03/04 07:58:05;;;;;;;;;;;;;;;10.28;35.82;99588.25;4487233;31;31529;-63
2022/03/04 08:00:34;;;;;;;;;;;;;;;8.80;38.88;99599.91;4485682;31;34037;-63
2022/03/04 08:03:02;;;;;;;;;;;;;;;8.19;40.88;99604.06;4485346;31;32398;-63
2022/03/04 08:05:31;;;;;;;;;;;;;;;7.59;42.84;99608.84;4484178;31;35665;-62
2022/03/04 08:08:00;;;;;;;;;;;;;;;7.50;43.47;99617.44;4480633;31;34100;-66
2022/03/04 08:10:28;;;;;;;;;;;;;;;7.81;43.40;99612.78;4468008;31;33438;-67
2022/03/04 08:12:59;;;;;;;;;;;;;;;7.32;44.38;99619.47;4479982;31;33389;-65
2022/03/04 08:15:37;;;;;;;;;;;;;;;7.16;45.24;99616.91;4483654;31;32649;-66
2022/03/04 08:18:25;;;;;;;;;;;;;;;6.70;46.55;99621.56;4488038;31;35212;-66
2022/03/04 08:21:11;;;;;;;;;;;;;;;6.65;47.80;99631.62;4488160;31;34226;-66
2022/03/04 08:23:50;;;;;;;;;;;;;;;6.67;46.98;99627.91;4489510;31;33532;-65
2022/03/04 08:26:25;;;;;;;;;;;;;;;6.99;47.44;99623.28;4490262;31;32842;-65
2022/03/04 08:29:02;;;;;;;;;;;;;;;6.78;47.62;99623.75;4486504;31;32863;-65
2022/03/04 08:31:31;;;;;;;;;;;;;;;6.50;48.02;99630.72;4481951;31;35331;-65
2022/03/04 08:34:03;;;;;;;;;;;;;;;6.33;48.52;99630.91;4489173;31;34337;-65
2022/03/04 08:36:35;;;;;;;;;;;;;;;6.62;48.29;99630.00;4483383;31;33902;-64
2022/03/04 08:39:05;;;;;;;;;;;;;;;6.33;48.80;99629.09;4486358;31;35247;-65
2022/03/04 08:41:36;;;;;;;;;;;;;;;7.04;46.80;99633.66;4484741;31;34473;-65
2022/03/04 08:44:09;;;;;;;;;;;;;;;6.79;48.09;99630.78;4486780;31;34551;-65
2022/03/04 08:46:42;;;;;;;;;;;;;;;7.32;47.47;99638.09;4483736;31;34248;-65
2022/03/04 08:49:12;;;;;;;;;;;;;;;7.43;46.35;99640.94;4480235;31;33473;-65
2022/03/04 08:51:45;;;;;;;;;;;;;;;6.18;49.84;99644.13;4480884;32;34023;-67
2022/03/04 08:54:27;;;;;;;;;;;;;;;6.69;49.05;99646.44;4484948;31;33631;-68
2022/03/04 08:57:09;;;;;;;;;;;;;;;7.08;47.11;99647.62;4489409;31;33872;-68
2022/03/04 08:59:47;;;;;;;;;;;;;;;7.35;46.63;99640.59;4482628;31;34778;-65
2022/03/04 09:02:28;;;;;;;;;;;;;;;8.01;45.33;99640.78;4492002;31;33273;-65
2022/03/04 09:05:06;;;;;;;;;;;;;;;8.58;43.84;99652.06;4473277;32;34377;-65
2022/03/04 09:07:41;;;;;;;;;;;;;;;9.00;42.17;99641.22;4479048;31;33932;-65
2022/03/04 09:10:28;;;;;;;;;;;;;;;9.13;41.44;99650.06;4480930;32;33098;-63
2022/03/04 09:13:13;;;;;;;;;;;;;;;9.93;40.11;99645.19;4486522;31;33840;-64
2022/03/04 09:15:45;;;;;;;;;;;;;;;10.23;40.16;99655.41;4490001;31;32405;-64
2022/03/04 09:18:18;;;;;;;;;;;;;;;10.55;38.28;99638.78;4492987;31;32256;-64
2022/03/04 09:20:56;;;;;;;;;;;;;;;10.72;37.54;99638.38;4491218;31;32996;-64
2022/03/04 09:23:37;;;;;;;;;;;;;;;10.35;37.95;99642.97;4488580;31;33209;-65
2022/03/04 09:26:21;;;;;;;;;;;;;;;10.82;37.35;99638.50;4485457;31;33370;-64
2022/03/04 09:28:58;;;;;;;;;;;;;;;10.93;37.34;99641.19;4490002;31;32862;-65
2022/03/04 09:31:41;;;;;;;;;;;;;;;11.30;36.15;99643.66;4487490;31;33348;-64
2022/03/04 09:34:25;;;;;;;;;;;;;;;11.63;35.35;99650.81;4488806;31;33483;-64
2022/03/04 09:37:02;;;;;;;;;;;;;;;11.64;34.93;99651.66;4488605;31;32493;-65
2022/03/04 09:39:40;;;;;;;;;;;;;;;11.76;34.51;99653.38;4487555;31;34335;-65
2022/03/04 09:42:20;;;;;;;;;;;;;;;11.77;34.63;99656.91;4489931;31;32771;-65
2022/03/04 09:45:01;;;;;;;;;;;;;;;11.58;34.80;99657.53;4485452;31;33179;-64
2022/03/04 09:47:47;;;;;;;;;;;;;;;12.09;33.84;99660.50;4490411;31;33984;-64
2022/03/04 09:50:24;;;;;;;;;;;;;;;11.63;34.87;99663.38;4474983;31;33972;-64
2022/03/04 09:53:08;;;;;;;;;;;;;;;12.08;34.17;99666.00;4474366;31;32955;-65
2022/03/04 09:55:51;;;;;;;;;;;;;;;12.11;33.86;99655.03;4482021;31;33023;-64
2022/03/04 09:58:27;;;;;;;;;;;;;;;11.82;34.57;99654.72;4490653;31;32327;-64
2022/03/04 10:01:12;;;;;;;;;;;;;;;11.96;35.13;99653.59;4487683;31;34964;-64
2022/03/04 10:03:52;;;;;;;;;;;;;;;11.86;34.96;99653.50;4483616;31;35221;-64
2022/03/04 10:06:30;;;;;;;;;;;;;;;11.62;36.23;99656.28;4482781;31;34459;-65
2022/03/04 10:09:00;;;;;;;;;;;;;;;11.90;35.14;99654.94;4486694;31;35389;-65
2022/03/04 10:11:33;;;;;;;;;;;;;;;11.58;35.40;99653.00;4487000;31;34909;-64
2022/03/04 10:14:17;;;;;;;;;;;;;;;12.06;34.87;99655.41;4486905;31;33028;-65
2022/03/04 10:16:58;;;;;;;;;;;;;;;11.92;34.84;99644.97;4475751;31;35744;-64
2022/03/04 10:19:33;;;;;;;;;;;;;;;12.29;34.67;99647.25;4486176;31;33411;-64
2022/03/04 10:22:13;;;;;;;;;;;;;;;11.78;35.33;99653.22;4488224;31;34173;-64
2022/03/04 10:24:56;;;;;;;;;;;;;;;12.33;34.23;99649.59;4488134;31;34162;-64
2022/03/04 10:27:35;;;;;;;;;;;;;;;11.63;36.37;99644.63;4494289;31;35049;-64
2022/03/04 10:30:06;;;;;;;;;;;;;;;12.01;35.39;99640.69;4482233;31;34125;-64
2022/03/04 10:32:34;;;;;;;;;;;;;;;12.12;34.61;99644.16;4484084;31;33773;-64
2022/03/04 10:35:06;;;;;;;;;;;;;;;11.98;35.24;99641.78;4482121;31;32852;-64
2022/03/04 10:37:40;;;;;;;;;;;;;;;12.00;34.73;99642.47;4486650;31;34214;-64
2022/03/04 10:40:08;;;;;;;;;;;;;;;12.14;35.05;99640.50;4490601;31;33684;-64
2022/03/04 10:43:00;;;;;;;;;;;;;;;12.03;34.55;99639.56;4485023;31;34120;-65
2022/03/04 10:45:35;;;;;;;;;;;;;;;12.24;34.88;99639.62;4481353;31;34178;-64
2022/03/04 10:48:03;;;;;;;;;;;;;;;12.35;35.15;99636.88;4495036;31;34758;-64
2022/03/04 10:50:33;;;;;;;;;;;;;;;12.78;34.18;99643.16;4492984;31;33498;-64
2022/03/04 10:53:05;;;;;;;;;;;;;;;12.74;34.80;99641.69;4486661;31;33087;-64
2022/03/04 10:55:33;;;;;;;;;;;;;;;12.37;35.46;99635.91;4491419;31;34337;-64
2022/03/04 10:58:03;;;;;;;;;;;;;;;12.62;34.89;99638.22;4488425;31;34262;-64
2022/03/04 11:00:32;;;;;;;;;;;;;;;12.74;35.04;99633.63;4487054;31;33810;-64
2022/03/04 11:03:00;;;;;;;;;;;;;;;12.71;34.52;99642.81;4493392;31;34074;-64
2022/03/04 11:05:28;;;;;;;;;;;;;;;13.03;33.82;99636.47;4484740;31;34426;-64
2022/03/04 11:07:57;;;;;;;;;;;;;;;12.64;35.03;99632.72;4486720;31;34443;-64
2022/03/04 11:10:26;;;;;;;;;;;;;;;12.86;34.53;99637.94;4485410;31;33142;-64
2022/03/04 11:12:55;;;;;;;;;;;;;;;12.19;35.18;99636.44;4490994;31;33916;-64
2022/03/04 11:15:23;;;;;;;;;;;;;;;13.05;33.87;99627.31;4490562;31;34329;-64
2022/03/04 11:17:52;;;;;;;;;;;;;;;12.30;35.63;99639.09;4491977;31;35395;-64
2022/03/04 11:20:21;;;;;;;;;;;;;;;12.51;35.26;99633.75;4494784;31;33785;-64
2022/03/04 11:22:51;;;;;;;;;;;;;;;12.83;34.88;99631.00;4489660;31;35302;-64
2022/03/04 11:25:19;;;;;;;;;;;;;;;12.86;34.85;99640.63;4490197;31;34096;-64
2022/03/04 11:27:47;;;;;;;;;;;;;;;12.19;35.92;99633.75;4480069;31;34603;-65
2022/03/04 11:30:28;;;;;;;;;;;;;;;12.33;36.00;99630.81;4485724;31;33438;-64
2022/03/04 11:33:00;;;;;;;;;;;;;;;12.76;35.36;99632.53;4490256;31;34902;-64
2022/03/04 11:35:35;;;;;;;;;;;;;;;12.97;34.61;99632.53;4487656;31;34281;-64
2022/03/04 11:38:03;;;;;;;;;;;;;;;12.91;35.04;99633.03;4486889;31;35595;-65
2022/03/04 11:40:33;;;;;;;;;;;;;;;13.43;33.37;99628.50;4491167;31;33309;-65
2022/03/04 11:43:06;;;;;;;;;;;;;;;13.90;33.14;99631.50;4472190;31;33065;-64
2022/03/04 11:45:35;;;;;;;;;;;;;;;14.28;32.59;99626.28;4489044;31;35562;-65
2022/03/04 11:48:03;;;;;;;;;;;;;;;14.30;32.33;99629.69;4490250;31;34540;-64
2022/03/04 11:50:32;;;;;;;;;;;;;;;14.41;31.14;99619.63;4494896;31;33820;-64
2022/03/04 11:53:10;;;;;;;;;;;;;;;13.97;31.83;99626.41;4497526;31;34297;-65
2022/03/04 11:55:38;;;;;;;;;;;;;;;14.31;31.45;99616.06;4489267;31;35498;-64
2022/03/04 11:58:06;;;;;;;;;;;;;;;14.86;31.46;99618.16;4476572;31;34351;-64
2022/03/04 12:00:34;;;;;;;;;;;;;;;14.33;31.31;99621.31;4489189;31;33603;-65
2022/03/04 12:03:12;;;;;;;;;;;;;;;15.06;30.79;99624.38;4489223;31;34146;-64
2022/03/04 12:05:44;;;;;;;;;;;;;;;15.25;30.36;99624.31;4494318;31;34405;-65
2022/03/04 12:08:13;;;;;;;;;;;;;;;15.31;29.96;99617.47;4492757;31;35165;-65
2022/03/04 12:10:44;;;;;;;;;;;;;;;14.98;30.78;99621.56;4485245;31;33410;-65
2022/03/04 12:13:13;;;;;;;;;;;;;;;15.18;30.02;99625.03;4483235;31;32510;-65
2022/03/04 12:15:45;;;;;;;;;;;;;;;15.57;29.37;99629.28;4482229;31;35428;-65
2022/03/04 12:18:25;;;;;;;;;;;;;;;15.37;29.36;99633.91;4481070;31;33288;-65
2022/03/04 12:20:55;;;;;;;;;;;;;;;15.05;29.85;99628.91;4484713;31;33512;-65
2022/03/04 12:23:29;;;;;;;;;;;;;;;14.72;30.28;99634.81;4489598;31;34120;-65
2022/03/04 12:25:57;;;;;;;;;;;;;;;14.61;30.31;99633.97;4493109;31;34302;-65
2022/03/04 12:28:31;;;;;;;;;;;;;;;15.04;30.00;99624.50;4483639;31;35522;-64
2022/03/04 12:31:01;;;;;;;;;;;;;;;14.44;30.31;99635.50;4483241;31;33567;-65
2022/03/04 12:33:32;;;;;;;;;;;;;;;14.86;29.94;99629.81;4486934;31;34297;-65
2022/03/04 12:36:00;;;;;;;;;;;;;;;15.24;29.47;99633.38;4485172;31;34857;-65
2022/03/04 12:38:29;;;;;;;;;;;;;;;15.26;29.62;99635.94;4485640;31;34598;-65
2022/03/04 12:40:57;;;;;;;;;;;;;;;15.27;30.05;99629.56;4485307;31;33661;-65
2022/03/04 12:43:25;;;;;;;;;;;;;;;14.91;30.90;99640.16;4466651;31;34281;-64
2022/03/04 12:45:55;;;;;;;;;;;;;;;14.45;31.78;99628.28;4487104;31;33514;-65
2022/03/04 12:48:23;;;;;;;;;;;;;;;14.51;32.22;99633.13;4487131;31;34375;-65
2022/03/04 12:50:50;;;;;;;;;;;;;;;14.92;30.89;99631.06;4480212;31;32490;-65
2022/03/04 12:53:20;;;;;;;;;;;;;;;14.15;32.22;99638.16;4483684;31;33514;-65
2022/03/04 12:55:48;;;;;;;;;;;;;;;13.09;34.74;99635.97;4483546;31;34145;-65
2022/03/04 12:58:16;;;;;;;;;;;;;;;13.14;35.35;99643.63;4483394;31;34511;-64
2022/03/04 13:00:44;;;;;;;;;;;;;;;13.75;34.41;99639.09;4485789;31;34117;-65
2022/03/04 13:03:19;;;;;;;;;;;;;;;13.90;34.75;99638.69;4469445;31;33962;-64
2022/03/04 13:05:48;;;;;;;;;;;;;;;13.15;36.31;99638.13;4489089;31;34080;-64
2022/03/04 13:08:16;;;;;;;;;;;;;;;13.36;36.48;99632.75;4484905;31;34258;-64
2022/03/04 13:10:44;;;;;;;;;;;;;;;13.39;35.96;99634.31;4486791;31;34587;-64